sensor_id;sensor_type;location;lat;lon;timestamp;P1;durP1;ratioP1;P2;durP2;ratioP2
3627;SDS011;1830;49.000;12.074;2024-02-21T00:00:08;18.83;;;5.20;;
3627;SDS011;1830;49.000;12.074;2024-02-21T00:02:36;11.43;;;5.50;;
3627;SDS011;1830;49.000;12.074;2024-02-21T00:05:05;19.20;;;5.27;;
3627;SDS011;1830;49.000;12.074;2024-02-21T00:07:32;14.40;;;5.27;;
3627;SDS011;1830;49.000;12.074;2024-02-21T00:09:59;12.30;;;4.20;;
3627;SDS011;1830;49.000;12.074;2024-02-21T00:12:25;15.20;;;5.20;;
3627;SDS011;1830;49.000;12.074;2024-02-21T00:14:52;10.17;;;4.80;;
3627;SDS011;1830;49.000;12.074;2024-02-21T00:17:19;15.00;;;5.03;;
3627;SDS011;1830;49.000;12.074;2024-02-21T00:19:46;16.90;;;4.50;;
3627;SDS011;1830;49.000;12.074;2024-02-21T00:22:15;13.40;;;4.60;;
3627;SDS011;1830;49.000;12.074;2024-02-21T00:24:42;16.90;;;5.90;;
3627;SDS011;1830;49.000;12.074;2024-02-21T00:27:09;18.10;;;5.13;;
3627;SDS011;1830;49.000;12.074;2024-02-21T00:29:35;11.03;;;3.93;;
3627;SDS011;1830;49.000;12.074;2024-02-21T00:32:02;16.40;;;4.87;;
3627;SDS011;1830;49.000;12.074;2024-02-21T00:34:30;16.83;;;5.20;;
3627;SDS011;1830;49.000;12.074;2024-02-21T00:36:56;9.50;;;4.50;;
3627;SDS011;1830;49.000;12.074;2024-02-21T00:39:24;11.43;;;4.10;;
3627;SDS011;1830;49.000;12.074;2024-02-21T00:41:51;18.80;;;5.40;;
3627;SDS011;1830;49.000;12.074;2024-02-21T00:44:18;12.80;;;4.77;;
3627;SDS011;1830;49.000;12.074;2024-02-21T00:46:45;15.03;;;5.30;;
3627;SDS011;1830;49.000;12.074;2024-02-21T00:49:12;8.77;;;4.20;;
3627;SDS011;1830;49.000;12.074;2024-02-21T00:51:39;8.80;;;5.27;;
3627;SDS011;1830;49.000;12.074;2024-02-21T00:54:05;11.30;;;4.90;;
3627;SDS011;1830;49.000;12.074;2024-02-21T00:56:33;8.43;;;5.50;;
3627;SDS011;1830;49.000;12.074;2024-02-21T00:59:00;13.47;;;4.90;;
3627;SDS011;1830;49.000;12.074;2024-02-21T01:01:27;15.33;;;5.90;;
3627;SDS011;1830;49.000;12.074;2024-02-21T01:03:54;12.70;;;6.67;;
3627;SDS011;1830;49.000;12.074;2024-02-21T01:06:20;17.47;;;6.00;;
3627;SDS011;1830;49.000;12.074;2024-02-21T01:08:48;16.97;;;5.80;;
3627;SDS011;1830;49.000;12.074;2024-02-21T01:11:15;14.13;;;5.73;;
3627;SDS011;1830;49.000;12.074;2024-02-21T01:13:43;12.27;;;6.47;;
3627;SDS011;1830;49.000;12.074;2024-02-21T01:16:10;12.97;;;6.70;;
3627;SDS011;1830;49.000;12.074;2024-02-21T01:18:37;13.60;;;5.90;;
3627;SDS011;1830;49.000;12.074;2024-02-21T01:21:04;19.17;;;6.90;;
3627;SDS011;1830;49.000;12.074;2024-02-21T01:23:32;14.33;;;6.80;;
3627;SDS011;1830;49.000;12.074;2024-02-21T01:25:58;17.90;;;7.20;;
3627;SDS011;1830;49.000;12.074;2024-02-21T01:28:25;19.97;;;7.50;;
3627;SDS011;1830;49.000;12.074;2024-02-21T01:30:53;15.00;;;6.83;;
3627;SDS011;1830;49.000;12.074;2024-02-21T01:33:20;19.23;;;6.97;;
3627;SDS011;1830;49.000;12.074;2024-02-21T01:35:47;21.00;;;7.20;;
3627;SDS011;1830;49.000;12.074;2024-02-21T01:38:14;12.53;;;7.10;;
3627;SDS011;1830;49.000;12.074;2024-02-21T01:40:41;9.60;;;6.53;;
3627;SDS011;1830;49.000;12.074;2024-02-21T01:43:15;18.00;;;7.33;;
3627;SDS011;1830;49.000;12.074;2024-02-21T01:45:42;18.23;;;6.70;;
3627;SDS011;1830;49.000;12.074;2024-02-21T01:48:12;15.07;;;7.07;;
3627;SDS011;1830;49.000;12.074;2024-02-21T01:50:39;19.47;;;7.50;;
3627;SDS011;1830;49.000;12.074;2024-02-21T01:53:06;16.27;;;6.77;;
3627;SDS011;1830;49.000;12.074;2024-02-21T01:55:34;25.93;;;7.03;;
3627;SDS011;1830;49.000;12.074;2024-02-21T01:58:01;15.73;;;6.70;;
3627;SDS011;1830;49.000;12.074;2024-02-21T02:00:28;12.57;;;6.40;;
3627;SDS011;1830;49.000;12.074;2024-02-21T02:02:55;18.00;;;6.53;;
3627;SDS011;1830;49.000;12.074;2024-02-21T02:05:25;24.43;;;7.13;;
3627;SDS011;1830;49.000;12.074;2024-02-21T02:07:52;13.83;;;6.90;;
3627;SDS011;1830;49.000;12.074;2024-02-21T02:10:19;15.30;;;7.63;;
3627;SDS011;1830;49.000;12.074;2024-02-21T02:12:46;17.33;;;6.60;;
3627;SDS011;1830;49.000;12.074;2024-02-21T02:15:13;16.77;;;6.97;;
3627;SDS011;1830;49.000;12.074;2024-02-21T02:17:39;18.23;;;7.27;;
3627;SDS011;1830;49.000;12.074;2024-02-21T02:20:07;14.00;;;6.93;;
3627;SDS011;1830;49.000;12.074;2024-02-21T02:22:35;16.30;;;6.17;;
3627;SDS011;1830;49.000;12.074;2024-02-21T02:25:07;15.50;;;6.67;;
3627;SDS011;1830;49.000;12.074;2024-02-21T02:27:40;16.23;;;5.60;;
3627;SDS011;1830;49.000;12.074;2024-02-21T02:30:09;13.37;;;7.07;;
3627;SDS011;1830;49.000;12.074;2024-02-21T02:32:36;14.90;;;6.40;;
3627;SDS011;1830;49.000;12.074;2024-02-21T02:35:04;15.77;;;6.90;;
3627;SDS011;1830;49.000;12.074;2024-02-21T02:37:31;12.93;;;5.47;;
3627;SDS011;1830;49.000;12.074;2024-02-21T02:39:57;15.83;;;5.67;;
3627;SDS011;1830;49.000;12.074;2024-02-21T02:42:26;22.07;;;6.50;;
3627;SDS011;1830;49.000;12.074;2024-02-21T02:44:52;19.03;;;5.77;;
3627;SDS011;1830;49.000;12.074;2024-02-21T02:47:19;9.67;;;5.10;;
3627;SDS011;1830;49.000;12.074;2024-02-21T02:49:46;22.40;;;7.10;;
3627;SDS011;1830;49.000;12.074;2024-02-21T02:52:15;10.90;;;4.93;;
3627;SDS011;1830;49.000;12.074;2024-02-21T02:54:42;20.83;;;5.93;;
3627;SDS011;1830;49.000;12.074;2024-02-21T02:57:09;13.40;;;6.23;;
3627;SDS011;1830;49.000;12.074;2024-02-21T02:59:37;17.10;;;6.37;;
3627;SDS011;1830;49.000;12.074;2024-02-21T03:02:04;14.40;;;5.60;;
3627;SDS011;1830;49.000;12.074;2024-02-21T03:04:31;11.70;;;5.10;;
3627;SDS011;1830;49.000;12.074;2024-02-21T03:06:58;13.33;;;5.37;;
3627;SDS011;1830;49.000;12.074;2024-02-21T03:09:24;14.60;;;5.47;;
3627;SDS011;1830;49.000;12.074;2024-02-21T03:11:51;13.93;;;5.57;;
3627;SDS011;1830;49.000;12.074;2024-02-21T03:14:22;14.90;;;5.60;;
3627;SDS011;1830;49.000;12.074;2024-02-21T03:16:52;20.73;;;6.07;;
3627;SDS011;1830;49.000;12.074;2024-02-21T03:19:19;15.73;;;5.97;;
3627;SDS011;1830;49.000;12.074;2024-02-21T03:21:45;12.73;;;5.90;;
3627;SDS011;1830;49.000;12.074;2024-02-21T03:24:12;20.93;;;6.20;;
3627;SDS011;1830;49.000;12.074;2024-02-21T03:26:39;13.93;;;4.83;;
3627;SDS011;1830;49.000;12.074;2024-02-21T03:29:06;16.30;;;5.70;;
3627;SDS011;1830;49.000;12.074;2024-02-21T03:31:33;11.00;;;5.17;;
3627;SDS011;1830;49.000;12.074;2024-02-21T03:34:01;15.57;;;5.33;;
3627;SDS011;1830;49.000;12.074;2024-02-21T03:36:28;20.73;;;6.10;;
3627;SDS011;1830;49.000;12.074;2024-02-21T03:38:55;11.93;;;5.70;;
3627;SDS011;1830;49.000;12.074;2024-02-21T03:41:22;12.37;;;5.17;;
3627;SDS011;1830;49.000;12.074;2024-02-21T03:43:49;24.03;;;6.10;;
3627;SDS011;1830;49.000;12.074;2024-02-21T03:46:16;16.77;;;6.10;;
3627;SDS011;1830;49.000;12.074;2024-02-21T03:48:42;17.10;;;5.50;;
3627;SDS011;1830;49.000;12.074;2024-02-21T03:51:11;11.03;;;4.70;;
3627;SDS011;1830;49.000;12.074;2024-02-21T03:53:38;17.30;;;5.33;;
3627;SDS011;1830;49.000;12.074;2024-02-21T03:56:05;14.60;;;5.80;;
3627;SDS011;1830;49.000;12.074;2024-02-21T03:58:32;13.43;;;5.50;;
3627;SDS011;1830;49.000;12.074;2024-02-21T04:00:59;12.00;;;5.10;;
3627;SDS011;1830;49.000;12.074;2024-02-21T04:03:27;9.50;;;5.10;;
3627;SDS011;1830;49.000;12.074;2024-02-21T04:05:53;9.67;;;5.33;;
3627;SDS011;1830;49.000;12.074;2024-02-21T04:08:22;18.67;;;5.50;;
3627;SDS011;1830;49.000;12.074;2024-02-21T04:10:49;11.70;;;5.47;;
3627;SDS011;1830;49.000;12.074;2024-02-21T04:13:16;12.97;;;5.27;;
3627;SDS011;1830;49.000;12.074;2024-02-21T04:15:43;14.83;;;5.63;;
3627;SDS011;1830;49.000;12.074;2024-02-21T04:18:09;16.97;;;5.27;;
3627;SDS011;1830;49.000;12.074;2024-02-21T04:20:36;24.50;;;5.27;;
3627;SDS011;1830;49.000;12.074;2024-02-21T04:23:03;7.87;;;4.43;;
3627;SDS011;1830;49.000;12.074;2024-02-21T04:25:31;8.23;;;5.03;;
3627;SDS011;1830;49.000;12.074;2024-02-21T04:27:58;17.37;;;5.93;;
3627;SDS011;1830;49.000;12.074;2024-02-21T04:30:24;14.27;;;5.67;;
3627;SDS011;1830;49.000;12.074;2024-02-21T04:32:51;16.23;;;5.10;;
3627;SDS011;1830;49.000;12.074;2024-02-21T04:35:19;10.07;;;6.40;;
3627;SDS011;1830;49.000;12.074;2024-02-21T04:37:46;24.43;;;6.33;;
3627;SDS011;1830;49.000;12.074;2024-02-21T04:40:13;13.87;;;4.90;;
3627;SDS011;1830;49.000;12.074;2024-02-21T04:42:43;13.10;;;5.27;;
3627;SDS011;1830;49.000;12.074;2024-02-21T04:45:10;12.90;;;5.10;;
3627;SDS011;1830;49.000;12.074;2024-02-21T04:47:37;13.73;;;5.30;;
3627;SDS011;1830;49.000;12.074;2024-02-21T04:50:04;10.23;;;4.97;;
3627;SDS011;1830;49.000;12.074;2024-02-21T04:52:32;9.20;;;5.07;;
3627;SDS011;1830;49.000;12.074;2024-02-21T04:54:58;11.83;;;5.30;;
3627;SDS011;1830;49.000;12.074;2024-02-21T04:57:25;13.63;;;6.07;;
3627;SDS011;1830;49.000;12.074;2024-02-21T04:59:53;15.20;;;6.13;;
3627;SDS011;1830;49.000;12.074;2024-02-21T05:02:20;9.87;;;4.53;;
3627;SDS011;1830;49.000;12.074;2024-02-21T05:04:49;8.93;;;4.13;;
3627;SDS011;1830;49.000;12.074;2024-02-21T05:07:16;12.47;;;5.30;;
3627;SDS011;1830;49.000;12.074;2024-02-21T05:09:44;17.30;;;5.30;;
3627;SDS011;1830;49.000;12.074;2024-02-21T05:12:11;8.80;;;4.70;;
3627;SDS011;1830;49.000;12.074;2024-02-21T05:14:38;16.53;;;4.97;;
3627;SDS011;1830;49.000;12.074;2024-02-21T05:17:06;10.70;;;4.30;;
3627;SDS011;1830;49.000;12.074;2024-02-21T05:19:33;11.07;;;5.10;;
3627;SDS011;1830;49.000;12.074;2024-02-21T05:22:00;13.43;;;5.23;;
3627;SDS011;1830;49.000;12.074;2024-02-21T05:24:27;20.67;;;5.20;;
3627;SDS011;1830;49.000;12.074;2024-02-21T05:26:54;13.73;;;4.90;;
3627;SDS011;1830;49.000;12.074;2024-02-21T05:29:21;18.27;;;5.30;;
3627;SDS011;1830;49.000;12.074;2024-02-21T05:31:55;7.50;;;4.30;;
3627;SDS011;1830;49.000;12.074;2024-02-21T05:34:24;17.53;;;5.20;;
3627;SDS011;1830;49.000;12.074;2024-02-21T05:36:51;11.93;;;3.90;;
3627;SDS011;1830;49.000;12.074;2024-02-21T05:39:18;10.33;;;4.43;;
3627;SDS011;1830;49.000;12.074;2024-02-21T05:41:47;10.00;;;4.07;;
3627;SDS011;1830;49.000;12.074;2024-02-21T05:44:15;18.27;;;5.87;;
3627;SDS011;1830;49.000;12.074;2024-02-21T05:46:41;12.80;;;4.63;;
3627;SDS011;1830;49.000;12.074;2024-02-21T05:49:08;15.00;;;4.40;;
3627;SDS011;1830;49.000;12.074;2024-02-21T05:51:37;13.23;;;4.77;;
3627;SDS011;1830;49.000;12.074;2024-02-21T05:54:03;9.70;;;5.03;;
3627;SDS011;1830;49.000;12.074;2024-02-21T05:56:30;7.17;;;4.20;;
3627;SDS011;1830;49.000;12.074;2024-02-21T05:58:57;13.73;;;4.10;;
3627;SDS011;1830;49.000;12.074;2024-02-21T06:01:24;11.90;;;4.70;;
3627;SDS011;1830;49.000;12.074;2024-02-21T06:03:51;15.33;;;4.97;;
3627;SDS011;1830;49.000;12.074;2024-02-21T06:06:17;14.33;;;4.97;;
3627;SDS011;1830;49.000;12.074;2024-02-21T06:08:48;13.87;;;4.27;;
3627;SDS011;1830;49.000;12.074;2024-02-21T06:11:14;14.73;;;4.07;;
3627;SDS011;1830;49.000;12.074;2024-02-21T06:13:41;9.53;;;4.37;;
3627;SDS011;1830;49.000;12.074;2024-02-21T06:16:08;6.17;;;3.90;;
3627;SDS011;1830;49.000;12.074;2024-02-21T06:18:35;10.20;;;4.47;;
3627;SDS011;1830;49.000;12.074;2024-02-21T06:21:03;9.73;;;5.33;;
3627;SDS011;1830;49.000;12.074;2024-02-21T06:23:29;15.40;;;5.57;;
3627;SDS011;1830;49.000;12.074;2024-02-21T06:25:58;12.80;;;5.03;;
3627;SDS011;1830;49.000;12.074;2024-02-21T06:28:24;17.67;;;5.50;;
3627;SDS011;1830;49.000;12.074;2024-02-21T06:30:51;12.97;;;5.67;;
3627;SDS011;1830;49.000;12.074;2024-02-21T06:33:18;16.07;;;5.07;;
3627;SDS011;1830;49.000;12.074;2024-02-21T06:35:47;15.07;;;4.93;;
3627;SDS011;1830;49.000;12.074;2024-02-21T06:38:17;11.03;;;4.50;;
3627;SDS011;1830;49.000;12.074;2024-02-21T06:40:44;13.80;;;4.97;;
3627;SDS011;1830;49.000;12.074;2024-02-21T06:43:16;15.73;;;4.50;;
3627;SDS011;1830;49.000;12.074;2024-02-21T06:45:43;12.40;;;4.50;;
3627;SDS011;1830;49.000;12.074;2024-02-21T06:48:12;12.03;;;5.40;;
3627;SDS011;1830;49.000;12.074;2024-02-21T06:50:39;16.37;;;5.50;;
3627;SDS011;1830;49.000;12.074;2024-02-21T06:53:06;17.03;;;5.63;;
3627;SDS011;1830;49.000;12.074;2024-02-21T06:55:33;14.13;;;5.00;;
3627;SDS011;1830;49.000;12.074;2024-02-21T06:58:00;7.77;;;4.47;;
3627;SDS011;1830;49.000;12.074;2024-02-21T07:00:29;11.03;;;4.37;;
3627;SDS011;1830;49.000;12.074;2024-02-21T07:02:56;13.63;;;5.17;;
3627;SDS011;1830;49.000;12.074;2024-02-21T07:05:23;5.60;;;4.20;;
3627;SDS011;1830;49.000;12.074;2024-02-21T07:07:50;11.17;;;4.67;;
3627;SDS011;1830;49.000;12.074;2024-02-21T07:10:16;16.40;;;4.93;;
3627;SDS011;1830;49.000;12.074;2024-02-21T07:12:43;11.20;;;5.10;;
3627;SDS011;1830;49.000;12.074;2024-02-21T07:15:10;17.27;;;4.97;;
3627;SDS011;1830;49.000;12.074;2024-02-21T07:17:38;13.93;;;6.20;;
3627;SDS011;1830;49.000;12.074;2024-02-21T07:20:05;9.47;;;4.50;;
3627;SDS011;1830;49.000;12.074;2024-02-21T07:22:33;16.27;;;5.13;;
3627;SDS011;1830;49.000;12.074;2024-02-21T07:24:59;11.10;;;5.13;;
3627;SDS011;1830;49.000;12.074;2024-02-21T07:27:26;22.00;;;5.40;;
3627;SDS011;1830;49.000;12.074;2024-02-21T07:29:56;15.90;;;4.63;;
3627;SDS011;1830;49.000;12.074;2024-02-21T07:32:22;17.57;;;5.10;;
3627;SDS011;1830;49.000;12.074;2024-02-21T07:34:50;13.60;;;4.27;;
3627;SDS011;1830;49.000;12.074;2024-02-21T07:37:17;12.40;;;4.67;;
3627;SDS011;1830;49.000;12.074;2024-02-21T07:39:44;12.03;;;4.60;;
3627;SDS011;1830;49.000;12.074;2024-02-21T07:42:11;8.37;;;4.20;;
3627;SDS011;1830;49.000;12.074;2024-02-21T07:44:37;10.03;;;4.00;;
3627;SDS011;1830;49.000;12.074;2024-02-21T07:47:04;12.93;;;4.80;;
3627;SDS011;1830;49.000;12.074;2024-02-21T07:49:32;9.03;;;4.53;;
3627;SDS011;1830;49.000;12.074;2024-02-21T07:52:01;12.20;;;4.40;;
3627;SDS011;1830;49.000;12.074;2024-02-21T07:54:28;10.10;;;5.07;;
3627;SDS011;1830;49.000;12.074;2024-02-21T07:56:55;8.63;;;4.50;;
3627;SDS011;1830;49.000;12.074;2024-02-21T07:59:22;9.67;;;4.80;;
3627;SDS011;1830;49.000;12.074;2024-02-21T08:01:48;13.10;;;4.37;;
3627;SDS011;1830;49.000;12.074;2024-02-21T08:04:15;8.57;;;4.07;;
3627;SDS011;1830;49.000;12.074;2024-02-21T08:06:42;8.40;;;4.30;;
3627;SDS011;1830;49.000;12.074;2024-02-21T08:09:11;11.60;;;4.40;;
3627;SDS011;1830;49.000;12.074;2024-02-21T08:11:38;8.23;;;3.73;;
3627;SDS011;1830;49.000;12.074;2024-02-21T08:14:05;5.43;;;4.00;;
3627;SDS011;1830;49.000;12.074;2024-02-21T08:16:32;12.70;;;5.20;;
3627;SDS011;1830;49.000;12.074;2024-02-21T08:18:59;13.60;;;4.20;;
3627;SDS011;1830;49.000;12.074;2024-02-21T08:21:27;12.97;;;4.90;;
3627;SDS011;1830;49.000;12.074;2024-02-21T08:23:54;8.30;;;4.60;;
3627;SDS011;1830;49.000;12.074;2024-02-21T08:26:22;11.57;;;4.73;;
3627;SDS011;1830;49.000;12.074;2024-02-21T08:28:52;7.37;;;4.00;;
3627;SDS011;1830;49.000;12.074;2024-02-21T08:31:19;14.50;;;4.67;;
3627;SDS011;1830;49.000;12.074;2024-02-21T08:33:48;9.67;;;4.77;;
3627;SDS011;1830;49.000;12.074;2024-02-21T08:36:17;9.03;;;4.90;;
3627;SDS011;1830;49.000;12.074;2024-02-21T08:38:44;10.80;;;4.67;;
3627;SDS011;1830;49.000;12.074;2024-02-21T08:41:11;16.63;;;4.60;;
3627;SDS011;1830;49.000;12.074;2024-02-21T08:43:39;11.60;;;3.70;;
3627;SDS011;1830;49.000;12.074;2024-02-21T08:46:06;8.07;;;4.13;;
3627;SDS011;1830;49.000;12.074;2024-02-21T08:48:33;10.93;;;5.40;;
3627;SDS011;1830;49.000;12.074;2024-02-21T08:50:59;10.93;;;5.43;;
3627;SDS011;1830;49.000;12.074;2024-02-21T08:53:26;13.33;;;4.53;;
3627;SDS011;1830;49.000;12.074;2024-02-21T08:55:53;13.07;;;5.03;;
3627;SDS011;1830;49.000;12.074;2024-02-21T08:58:20;11.33;;;3.83;;
3627;SDS011;1830;49.000;12.074;2024-02-21T09:00:49;10.23;;;4.53;;
3627;SDS011;1830;49.000;12.074;2024-02-21T09:03:17;10.93;;;4.90;;
3627;SDS011;1830;49.000;12.074;2024-02-21T09:05:45;17.67;;;4.77;;
3627;SDS011;1830;49.000;12.074;2024-02-21T09:08:11;9.70;;;4.00;;
3627;SDS011;1830;49.000;12.074;2024-02-21T09:10:39;6.20;;;4.10;;
3627;SDS011;1830;49.000;12.074;2024-02-21T09:13:06;14.20;;;3.87;;
3627;SDS011;1830;49.000;12.074;2024-02-21T09:15:33;14.97;;;4.97;;
3627;SDS011;1830;49.000;12.074;2024-02-21T09:18:02;9.37;;;4.80;;
3627;SDS011;1830;49.000;12.074;2024-02-21T09:20:29;14.17;;;4.77;;
3627;SDS011;1830;49.000;12.074;2024-02-21T09:22:56;13.13;;;5.00;;
3627;SDS011;1830;49.000;12.074;2024-02-21T09:25:23;12.90;;;4.80;;
3627;SDS011;1830;49.000;12.074;2024-02-21T09:27:50;14.13;;;5.63;;
3627;SDS011;1830;49.000;12.074;2024-02-21T09:30:17;10.03;;;4.13;;
3627;SDS011;1830;49.000;12.074;2024-02-21T09:32:44;12.60;;;3.97;;
3627;SDS011;1830;49.000;12.074;2024-02-21T09:35:12;11.57;;;4.50;;
3627;SDS011;1830;49.000;12.074;2024-02-21T09:37:39;7.33;;;4.10;;
3627;SDS011;1830;49.000;12.074;2024-02-21T09:40:07;11.10;;;4.57;;
3627;SDS011;1830;49.000;12.074;2024-02-21T09:42:36;10.03;;;4.83;;
3627;SDS011;1830;49.000;12.074;2024-02-21T09:45:07;8.97;;;4.30;;
3627;SDS011;1830;49.000;12.074;2024-02-21T09:47:39;7.83;;;4.10;;
3627;SDS011;1830;49.000;12.074;2024-02-21T09:50:15;11.43;;;4.37;;
3627;SDS011;1830;49.000;12.074;2024-02-21T09:52:43;7.53;;;4.33;;
3627;SDS011;1830;49.000;12.074;2024-02-21T09:55:11;17.83;;;4.47;;
3627;SDS011;1830;49.000;12.074;2024-02-21T09:57:39;6.53;;;3.90;;
3627;SDS011;1830;49.000;12.074;2024-02-21T10:00:06;16.27;;;4.80;;
3627;SDS011;1830;49.000;12.074;2024-02-21T10:02:34;12.30;;;4.23;;
3627;SDS011;1830;49.000;12.074;2024-02-21T10:05:01;11.20;;;4.50;;
3627;SDS011;1830;49.000;12.074;2024-02-21T10:07:31;9.60;;;4.53;;
3627;SDS011;1830;49.000;12.074;2024-02-21T10:10:02;10.50;;;4.53;;
3627;SDS011;1830;49.000;12.074;2024-02-21T10:12:29;11.33;;;4.80;;
3627;SDS011;1830;49.000;12.074;2024-02-21T10:15:02;12.87;;;4.67;;
3627;SDS011;1830;49.000;12.074;2024-02-21T10:17:29;5.60;;;3.60;;
3627;SDS011;1830;49.000;12.074;2024-02-21T10:20:06;10.03;;;4.63;;
3627;SDS011;1830;49.000;12.074;2024-02-21T10:22:35;15.63;;;4.47;;
3627;SDS011;1830;49.000;12.074;2024-02-21T10:25:07;5.77;;;3.60;;
3627;SDS011;1830;49.000;12.074;2024-02-21T10:27:34;4.80;;;3.57;;
3627;SDS011;1830;49.000;12.074;2024-02-21T10:30:02;8.97;;;4.30;;
3627;SDS011;1830;49.000;12.074;2024-02-21T10:32:29;15.40;;;4.63;;
3627;SDS011;1830;49.000;12.074;2024-02-21T10:35:00;11.20;;;4.33;;
3627;SDS011;1830;49.000;12.074;2024-02-21T10:37:28;9.43;;;4.00;;
3627;SDS011;1830;49.000;12.074;2024-02-21T10:39:56;14.43;;;3.87;;
3627;SDS011;1830;49.000;12.074;2024-02-21T10:42:23;19.27;;;5.77;;
3627;SDS011;1830;49.000;12.074;2024-02-21T10:44:56;10.33;;;3.73;;
3627;SDS011;1830;49.000;12.074;2024-02-21T10:47:26;14.50;;;4.60;;
3627;SDS011;1830;49.000;12.074;2024-02-21T10:49:57;11.90;;;4.00;;
3627;SDS011;1830;49.000;12.074;2024-02-21T10:52:30;5.17;;;3.27;;
3627;SDS011;1830;49.000;12.074;2024-02-21T10:55:14;17.70;;;5.07;;
3627;SDS011;1830;49.000;12.074;2024-02-21T10:57:48;5.43;;;2.93;;
3627;SDS011;1830;49.000;12.074;2024-02-21T11:00:16;8.73;;;2.87;;
3627;SDS011;1830;49.000;12.074;2024-02-21T11:02:44;4.20;;;3.77;;
3627;SDS011;1830;49.000;12.074;2024-02-21T11:05:12;13.53;;;3.63;;
3627;SDS011;1830;49.000;12.074;2024-02-21T11:07:41;15.23;;;4.30;;
3627;SDS011;1830;49.000;12.074;2024-02-21T11:10:22;12.83;;;3.67;;
3627;SDS011;1830;49.000;12.074;2024-02-21T11:12:52;12.33;;;4.03;;
3627;SDS011;1830;49.000;12.074;2024-02-21T11:15:24;10.23;;;4.00;;
3627;SDS011;1830;49.000;12.074;2024-02-21T11:17:55;10.20;;;3.43;;
3627;SDS011;1830;49.000;12.074;2024-02-21T11:20:31;7.47;;;3.67;;
3627;SDS011;1830;49.000;12.074;2024-02-21T11:22:59;11.53;;;3.57;;
3627;SDS011;1830;49.000;12.074;2024-02-21T11:25:27;5.00;;;3.37;;
3627;SDS011;1830;49.000;12.074;2024-02-21T11:28:00;9.63;;;4.03;;
3627;SDS011;1830;49.000;12.074;2024-02-21T11:30:29;11.90;;;3.77;;
3627;SDS011;1830;49.000;12.074;2024-02-21T11:33:01;12.57;;;4.03;;
3627;SDS011;1830;49.000;12.074;2024-02-21T11:35:31;9.87;;;3.60;;
3627;SDS011;1830;49.000;12.074;2024-02-21T11:38:09;7.37;;;3.90;;
3627;SDS011;1830;49.000;12.074;2024-02-21T11:40:41;10.00;;;3.60;;
3627;SDS011;1830;49.000;12.074;2024-02-21T11:43:09;4.60;;;2.70;;
3627;SDS011;1830;49.000;12.074;2024-02-21T11:45:36;6.83;;;3.70;;
3627;SDS011;1830;49.000;12.074;2024-02-21T11:48:05;8.20;;;3.00;;
3627;SDS011;1830;49.000;12.074;2024-02-21T11:50:33;6.80;;;3.47;;
3627;SDS011;1830;49.000;12.074;2024-02-21T11:53:00;7.83;;;2.60;;
3627;SDS011;1830;49.000;12.074;2024-02-21T11:55:27;5.50;;;3.33;;
3627;SDS011;1830;49.000;12.074;2024-02-21T11:57:56;9.80;;;3.30;;
3627;SDS011;1830;49.000;12.074;2024-02-21T12:00:23;5.20;;;3.33;;
3627;SDS011;1830;49.000;12.074;2024-02-21T12:02:51;5.20;;;3.27;;
3627;SDS011;1830;49.000;12.074;2024-02-21T12:05:20;10.37;;;3.00;;
3627;SDS011;1830;49.000;12.074;2024-02-21T12:07:47;5.30;;;3.00;;
3627;SDS011;1830;49.000;12.074;2024-02-21T12:10:14;12.27;;;3.83;;
3627;SDS011;1830;49.000;12.074;2024-02-21T12:12:41;5.40;;;3.10;;
3627;SDS011;1830;49.000;12.074;2024-02-21T12:15:09;6.17;;;3.60;;
3627;SDS011;1830;49.000;12.074;2024-02-21T12:17:36;5.70;;;3.17;;
3627;SDS011;1830;49.000;12.074;2024-02-21T12:20:06;6.17;;;2.30;;
3627;SDS011;1830;49.000;12.074;2024-02-21T12:22:34;7.83;;;2.90;;
3627;SDS011;1830;49.000;12.074;2024-02-21T12:25:02;6.40;;;3.00;;
3627;SDS011;1830;49.000;12.074;2024-02-21T12:27:32;7.47;;;2.63;;
3627;SDS011;1830;49.000;12.074;2024-02-21T12:29:59;7.73;;;3.07;;
3627;SDS011;1830;49.000;12.074;2024-02-21T12:32:27;6.13;;;3.63;;
3627;SDS011;1830;49.000;12.074;2024-02-21T12:34:54;2.87;;;2.57;;
3627;SDS011;1830;49.000;12.074;2024-02-21T12:37:21;11.43;;;3.00;;
3627;SDS011;1830;49.000;12.074;2024-02-21T12:39:50;9.80;;;3.73;;
3627;SDS011;1830;49.000;12.074;2024-02-21T12:42:16;5.87;;;2.60;;
3627;SDS011;1830;49.000;12.074;2024-02-21T12:44:43;12.70;;;2.60;;
3627;SDS011;1830;49.000;12.074;2024-02-21T12:47:10;4.47;;;2.70;;
3627;SDS011;1830;49.000;12.074;2024-02-21T12:49:38;7.90;;;3.50;;
3627;SDS011;1830;49.000;12.074;2024-02-21T12:52:06;5.33;;;2.63;;
3627;SDS011;1830;49.000;12.074;2024-02-21T12:54:33;10.67;;;3.40;;
3627;SDS011;1830;49.000;12.074;2024-02-21T12:56:59;10.33;;;2.77;;
3627;SDS011;1830;49.000;12.074;2024-02-21T12:59:28;12.30;;;3.00;;
3627;SDS011;1830;49.000;12.074;2024-02-21T13:01:54;4.50;;;3.27;;
3627;SDS011;1830;49.000;12.074;2024-02-21T13:04:21;11.23;;;4.10;;
3627;SDS011;1830;49.000;12.074;2024-02-21T13:06:50;7.23;;;3.13;;
3627;SDS011;1830;49.000;12.074;2024-02-21T13:09:17;9.57;;;2.90;;
3627;SDS011;1830;49.000;12.074;2024-02-21T13:11:45;13.60;;;4.60;;
3627;SDS011;1830;49.000;12.074;2024-02-21T13:14:11;7.90;;;3.33;;
3627;SDS011;1830;49.000;12.074;2024-02-21T13:16:38;5.37;;;3.00;;
3627;SDS011;1830;49.000;12.074;2024-02-21T13:19:05;4.77;;;2.50;;
3627;SDS011;1830;49.000;12.074;2024-02-21T13:21:33;4.40;;;3.20;;
3627;SDS011;1830;49.000;12.074;2024-02-21T13:24:01;8.03;;;4.07;;
3627;SDS011;1830;49.000;12.074;2024-02-21T13:26:28;13.33;;;3.33;;
3627;SDS011;1830;49.000;12.074;2024-02-21T13:28:55;8.97;;;3.40;;
3627;SDS011;1830;49.000;12.074;2024-02-21T13:31:21;6.27;;;2.63;;
3627;SDS011;1830;49.000;12.074;2024-02-21T13:33:50;4.23;;;2.20;;
3627;SDS011;1830;49.000;12.074;2024-02-21T13:36:17;4.10;;;2.50;;
3627;SDS011;1830;49.000;12.074;2024-02-21T13:38:44;8.20;;;2.60;;
3627;SDS011;1830;49.000;12.074;2024-02-21T13:41:13;4.17;;;2.07;;
3627;SDS011;1830;49.000;12.074;2024-02-21T13:43:40;9.40;;;3.60;;
3627;SDS011;1830;49.000;12.074;2024-02-21T13:46:06;4.60;;;2.47;;
3627;SDS011;1830;49.000;12.074;2024-02-21T13:48:34;7.70;;;2.93;;
3627;SDS011;1830;49.000;12.074;2024-02-21T13:51:02;8.87;;;3.03;;
3627;SDS011;1830;49.000;12.074;2024-02-21T13:53:28;4.73;;;2.90;;
3627;SDS011;1830;49.000;12.074;2024-02-21T13:55:55;5.23;;;2.30;;
3627;SDS011;1830;49.000;12.074;2024-02-21T13:58:23;7.90;;;2.80;;
3627;SDS011;1830;49.000;12.074;2024-02-21T14:00:51;5.97;;;2.67;;
3627;SDS011;1830;49.000;12.074;2024-02-21T14:03:18;5.17;;;2.73;;
3627;SDS011;1830;49.000;12.074;2024-02-21T14:05:46;2.53;;;2.03;;
3627;SDS011;1830;49.000;12.074;2024-02-21T14:08:13;10.90;;;2.80;;
3627;SDS011;1830;49.000;12.074;2024-02-21T14:10:40;4.97;;;2.33;;
3627;SDS011;1830;49.000;12.074;2024-02-21T14:13:07;5.27;;;2.60;;
3627;SDS011;1830;49.000;12.074;2024-02-21T14:15:35;3.80;;;2.60;;
3627;SDS011;1830;49.000;12.074;2024-02-21T14:18:06;11.83;;;2.50;;
3627;SDS011;1830;49.000;12.074;2024-02-21T14:20:34;9.53;;;3.90;;
3627;SDS011;1830;49.000;12.074;2024-02-21T14:23:01;3.63;;;1.87;;
3627;SDS011;1830;49.000;12.074;2024-02-21T14:25:29;4.90;;;2.50;;
3627;SDS011;1830;49.000;12.074;2024-02-21T14:27:56;4.70;;;2.23;;
3627;SDS011;1830;49.000;12.074;2024-02-21T14:30:23;6.20;;;2.53;;
3627;SDS011;1830;49.000;12.074;2024-02-21T14:32:51;4.23;;;2.10;;
3627;SDS011;1830;49.000;12.074;2024-02-21T14:35:18;6.43;;;2.60;;
3627;SDS011;1830;49.000;12.074;2024-02-21T14:37:45;5.40;;;2.80;;
3627;SDS011;1830;49.000;12.074;2024-02-21T14:40:14;4.60;;;2.90;;
3627;SDS011;1830;49.000;12.074;2024-02-21T14:42:41;9.30;;;2.97;;
3627;SDS011;1830;49.000;12.074;2024-02-21T14:45:08;6.63;;;2.47;;
3627;SDS011;1830;49.000;12.074;2024-02-21T14:47:35;3.30;;;2.73;;
3627;SDS011;1830;49.000;12.074;2024-02-21T14:50:03;6.87;;;2.50;;
3627;SDS011;1830;49.000;12.074;2024-02-21T14:52:32;9.60;;;3.10;;
3627;SDS011;1830;49.000;12.074;2024-02-21T14:55:00;5.63;;;2.93;;